createdAt,value
2016-08-05T00:00:18.970Z,0
2016-08-05T00:01:18.985Z,0
2016-08-05T00:02:20.172Z,0
2016-08-05T00:03:18.983Z,0
2016-08-05T00:04:18.998Z,0
2016-08-05T00:05:19.000Z,0
2016-08-05T00:06:19.007Z,0
2016-08-05T00:07:19.017Z,0
2016-08-05T00:08:19.015Z,0
2016-08-05T00:09:19.024Z,0
2016-08-05T00:10:19.039Z,0
2016-08-05T00:11:19.032Z,0
2016-08-05T00:12:19.043Z,0
2016-08-05T00:13:19.054Z,0
2016-08-05T00:14:19.055Z,0
2016-08-05T00:15:19.070Z,0
2016-08-05T00:16:19.072Z,0
2016-08-05T00:17:19.074Z,0
2016-08-05T00:18:19.076Z,0
2016-08-05T00:19:19.081Z,0
2016-08-05T00:20:19.091Z,0
2016-08-05T00:21:19.098Z,0
2016-08-05T00:22:19.112Z,0
2016-08-05T00:23:19.109Z,0
2016-08-05T00:24:19.117Z,0
2016-08-05T00:26:19.128Z,0
2016-08-05T00:27:19.141Z,0
2016-08-05T00:28:19.139Z,0
2016-08-05T00:29:19.149Z,0
2016-08-05T00:30:19.161Z,0
2016-08-05T00:31:19.211Z,0
2016-08-05T00:32:19.172Z,0
2016-08-05T00:33:19.173Z,0
2016-08-05T00:34:19.179Z,0
2016-08-05T00:35:19.185Z,0
2016-08-05T00:36:19.185Z,0
2016-08-05T00:37:19.193Z,0
2016-08-05T00:38:19.202Z,0
2016-08-05T00:39:19.207Z,0
2016-08-05T00:40:22.865Z,0
2016-08-05T00:41:19.220Z,0
2016-08-05T00:42:19.943Z,0
2016-08-05T00:43:19.248Z,0
2016-08-05T00:44:19.236Z,0
2016-08-05T00:45:19.243Z,0
2016-08-05T00:46:19.253Z,0
2016-08-05T00:47:19.256Z,0
2016-08-05T00:48:19.264Z,0
2016-08-05T00:49:19.272Z,0
2016-08-05T00:50:19.279Z,0
2016-08-05T00:51:19.290Z,0
2016-08-05T00:52:19.292Z,0
2016-08-05T00:53:19.297Z,0
2016-08-05T00:54:19.297Z,0
2016-08-05T00:56:19.310Z,0
2016-08-05T00:57:19.320Z,0
2016-08-05T00:58:19.324Z,0
2016-08-05T00:59:19.337Z,0
2016-08-05T01:00:19.338Z,0
2016-08-05T01:01:19.351Z,0
2016-08-05T01:02:19.346Z,0
2016-08-05T01:03:19.352Z,0
2016-08-05T01:04:19.361Z,0
2016-08-05T01:05:19.375Z,0
2016-08-05T01:06:19.370Z,0
2016-08-05T01:07:19.378Z,0
2016-08-05T01:08:19.391Z,0
2016-08-05T01:09:19.388Z,0
2016-08-05T01:11:19.419Z,0
2016-08-05T01:12:19.411Z,0
2016-08-05T01:13:19.422Z,0
2016-08-05T01:14:19.419Z,0
2016-08-05T01:15:19.427Z,0
2016-08-05T01:16:19.438Z,0
2016-08-05T01:17:19.438Z,0
2016-08-05T01:18:19.451Z,0
2016-08-05T01:19:19.451Z,0
2016-08-05T01:20:19.461Z,0
2016-08-05T01:21:19.460Z,0
2016-08-05T01:22:20.199Z,0
2016-08-05T01:23:19.481Z,0
2016-08-05T01:24:19.482Z,0
2016-08-05T01:26:19.496Z,0
2016-08-05T01:27:19.505Z,0
2016-08-05T01:28:19.511Z,0
2016-08-05T01:29:19.511Z,0
2016-08-05T01:30:19.519Z,0
2016-08-05T01:31:19.523Z,0
2016-08-05T01:32:19.532Z,0
2016-08-05T01:33:19.540Z,0
2016-08-05T01:34:19.552Z,0
2016-08-05T01:35:19.548Z,0
2016-08-05T01:36:19.563Z,0
2016-08-05T01:37:19.562Z,0
2016-08-05T01:38:19.566Z,0
2016-08-05T01:39:19.592Z,0
2016-08-05T01:41:19.584Z,0
2016-08-05T01:42:19.599Z,0
2016-08-05T01:43:19.598Z,0
2016-08-05T01:44:19.606Z,0
2016-08-05T01:45:19.606Z,0
2016-08-05T01:46:19.619Z,0
2016-08-05T01:47:19.627Z,0
2016-08-05T01:48:19.633Z,0
2016-08-05T01:49:19.631Z,0
2016-08-05T01:50:19.641Z,0
2016-08-05T01:51:19.654Z,0
2016-08-05T01:52:19.653Z,0
2016-08-05T01:53:19.658Z,0
2016-08-05T01:54:19.668Z,0
2016-08-05T01:55:19.675Z,0
2016-08-05T01:56:19.680Z,0
2016-08-05T01:57:19.685Z,0
2016-08-05T01:58:19.697Z,0
2016-08-05T01:59:19.702Z,0
2016-08-05T02:00:19.708Z,0
2016-08-05T02:01:19.710Z,0
2016-08-05T02:02:19.714Z,0
2016-08-05T02:03:19.720Z,0
2016-08-05T02:04:19.724Z,0
2016-08-05T02:05:19.734Z,0
2016-08-05T02:06:19.741Z,0
2016-08-05T02:07:19.745Z,0
2016-08-05T02:08:19.748Z,0
2016-08-05T02:09:19.759Z,0
2016-08-05T02:10:19.768Z,0
2016-08-05T02:11:19.771Z,0
2016-08-05T02:12:19.787Z,0
2016-08-05T02:13:19.788Z,0
2016-08-05T02:14:19.787Z,0
2016-08-05T02:15:19.792Z,0
2016-08-05T02:16:19.795Z,0
2016-08-05T02:17:19.811Z,0
2016-08-05T02:18:19.815Z,0
2016-08-05T02:19:19.820Z,0
2016-08-05T02:20:19.829Z,0
2016-08-05T02:21:19.827Z,0
2016-08-05T02:22:19.850Z,0
2016-08-05T02:23:19.843Z,0
2016-08-05T02:24:19.847Z,0
2016-08-05T02:25:19.860Z,0
2016-08-05T02:26:19.859Z,0
2016-08-05T02:27:19.876Z,0
2016-08-05T02:28:19.872Z,0
2016-08-05T02:29:19.876Z,0
2016-08-05T02:30:19.887Z,0
2016-08-05T02:31:19.896Z,0
2016-08-05T02:32:19.899Z,0
2016-08-05T02:33:19.901Z,0
2016-08-05T02:34:19.917Z,0
2016-08-05T02:35:19.916Z,0
2016-08-05T02:36:19.921Z,0
2016-08-05T02:37:19.931Z,0
2016-08-05T02:38:19.932Z,0
2016-08-05T02:39:19.947Z,0
2016-08-05T02:40:19.946Z,0
2016-08-05T02:41:19.952Z,0
2016-08-05T02:42:19.965Z,0
2016-08-05T02:43:19.961Z,0
2016-08-05T02:44:19.979Z,0
2016-08-05T02:45:19.977Z,0
2016-08-05T02:46:19.991Z,0
2016-08-05T02:47:19.989Z,0
2016-08-05T02:48:20.000Z,0
2016-08-05T02:49:19.997Z,0
2016-08-05T02:50:20.007Z,0
2016-08-05T02:51:20.013Z,0
2016-08-05T02:52:20.037Z,0
2016-08-05T02:53:20.024Z,0
2016-08-05T02:54:20.033Z,0
2016-08-05T02:55:20.039Z,0
2016-08-05T02:56:20.039Z,0
2016-08-05T02:57:20.048Z,0
2016-08-05T02:58:20.056Z,0
2016-08-05T02:59:20.068Z,0
2016-08-05T03:00:20.067Z,0
2016-08-05T03:01:20.072Z,0
2016-08-05T03:02:20.082Z,0
2016-08-05T03:03:20.087Z,0
2016-08-05T03:04:20.092Z,0
2016-08-05T03:05:20.107Z,0
2016-08-05T03:06:20.104Z,0
2016-08-05T03:07:20.115Z,0
2016-08-05T03:08:20.119Z,0
2016-08-05T03:09:20.128Z,0
2016-08-05T03:10:20.132Z,0
2016-08-05T03:11:20.136Z,0
2016-08-05T03:12:20.140Z,0
2016-08-05T03:13:20.147Z,0
2016-08-05T03:14:20.151Z,0
2016-08-05T03:15:20.157Z,0
2016-08-05T03:16:20.169Z,0
2016-08-05T03:17:20.170Z,0
2016-08-05T03:18:20.172Z,0
2016-08-05T03:19:20.182Z,0
2016-08-05T03:20:20.186Z,0
2016-08-05T03:21:20.195Z,0
2016-08-05T03:22:20.214Z,0
2016-08-05T03:23:20.205Z,0
2016-08-05T03:24:20.214Z,0
2016-08-05T03:25:20.215Z,0
2016-08-05T03:26:20.231Z,0
2016-08-05T03:27:20.233Z,0
2016-08-05T03:28:20.239Z,0
2016-08-05T03:29:20.242Z,0
2016-08-05T03:30:20.253Z,0
2016-08-05T03:31:20.254Z,0
2016-08-05T03:32:20.318Z,0
2016-08-05T03:33:20.268Z,0
2016-08-05T03:34:20.276Z,0
2016-08-05T03:35:20.276Z,0
2016-08-05T03:36:20.287Z,0
2016-08-05T03:37:20.295Z,0
2016-08-05T03:38:20.305Z,4
2016-08-05T03:39:20.307Z,4
2016-08-05T03:40:20.309Z,4
2016-08-05T03:41:20.324Z,4
2016-08-05T03:42:20.320Z,0
2016-08-05T03:43:20.329Z,4
2016-08-05T03:44:20.335Z,4
2016-08-05T03:45:20.343Z,4
2016-08-05T03:46:20.348Z,4
2016-08-05T03:47:20.351Z,8
2016-08-05T03:48:20.364Z,4
2016-08-05T03:49:20.363Z,4
2016-08-05T03:50:20.370Z,8
2016-08-05T03:51:20.377Z,8
2016-08-05T03:52:20.384Z,8
2016-08-05T03:53:20.392Z,8
2016-08-05T03:54:20.397Z,8
2016-08-05T03:55:20.402Z,12
2016-08-05T03:56:20.409Z,8
2016-08-05T03:57:20.412Z,8
2016-08-05T03:58:20.422Z,8
2016-08-05T03:59:20.425Z,8
2016-08-05T04:00:20.435Z,12
2016-08-05T04:01:20.452Z,12
2016-08-05T04:02:20.447Z,12
2016-08-05T04:03:20.452Z,16
2016-08-05T04:04:20.449Z,16
2016-08-05T04:05:20.465Z,12
2016-08-05T04:06:20.475Z,12
2016-08-05T04:07:20.474Z,12
2016-08-05T04:08:20.482Z,16
2016-08-05T04:09:20.484Z,16
2016-08-05T04:10:20.491Z,16
2016-08-05T04:11:20.492Z,16
2016-08-05T04:12:20.503Z,16
2016-08-05T04:13:20.515Z,16
2016-08-05T04:14:20.515Z,20
2016-08-05T04:15:20.517Z,24
2016-08-05T04:16:20.529Z,28
2016-08-05T04:17:20.538Z,28
2016-08-05T04:18:20.548Z,32
2016-08-05T04:19:20.542Z,32
2016-08-05T04:20:21.276Z,32
2016-08-05T04:21:20.556Z,36
2016-08-05T04:22:20.564Z,32
2016-08-05T04:23:20.568Z,36
2016-08-05T04:24:20.575Z,40
2016-08-05T04:25:20.579Z,40
2016-08-05T04:26:20.588Z,40
2016-08-05T04:27:20.594Z,40
2016-08-05T04:28:20.615Z,44
2016-08-05T04:29:20.608Z,52
2016-08-05T04:30:20.612Z,56
2016-08-05T04:31:20.616Z,60
2016-08-05T04:32:20.773Z,60
2016-08-05T04:33:20.630Z,64
2016-08-05T04:34:20.635Z,72
2016-08-05T04:35:20.646Z,72
2016-08-05T04:36:20.645Z,80
2016-08-05T04:37:20.652Z,84
2016-08-05T04:38:20.660Z,80
2016-08-05T04:39:20.664Z,76
2016-08-05T04:40:20.671Z,76
2016-08-05T04:41:20.675Z,68
2016-08-05T04:42:20.680Z,64
2016-08-05T04:43:20.687Z,60
2016-08-05T04:44:20.709Z,64
2016-08-05T04:45:20.707Z,68
2016-08-05T04:46:20.706Z,68
2016-08-05T04:47:20.720Z,68
2016-08-05T04:48:20.726Z,72
2016-08-05T04:49:20.726Z,72
2016-08-05T04:50:20.733Z,80
2016-08-05T04:51:20.741Z,80
2016-08-05T04:52:20.745Z,80
2016-08-05T04:53:20.750Z,76
2016-08-05T04:54:20.755Z,80
2016-08-05T04:55:20.771Z,72
2016-08-05T04:56:20.778Z,80
2016-08-05T04:57:21.491Z,80
2016-08-05T04:58:20.777Z,80
2016-08-05T04:59:20.788Z,76
2016-08-05T05:00:20.794Z,76
2016-08-05T05:01:20.793Z,80
2016-08-05T05:02:20.808Z,84
2016-08-05T05:03:20.807Z,96
2016-08-05T05:04:20.833Z,112
2016-08-05T05:05:20.819Z,132
2016-08-05T05:06:20.821Z,116
2016-08-05T05:07:20.839Z,96
2016-08-05T05:08:20.856Z,100
2016-08-05T05:09:20.852Z,112
2016-08-05T05:10:20.850Z,116
2016-08-05T05:11:20.858Z,124
2016-08-05T05:12:20.864Z,120
2016-08-05T05:13:20.870Z,128
2016-08-05T05:14:20.873Z,132
2016-08-05T05:15:20.882Z,140
2016-08-05T05:16:20.889Z,160
2016-08-05T05:17:20.896Z,172
2016-08-05T05:18:20.916Z,212
2016-08-05T05:19:20.907Z,224
2016-08-05T05:20:21.886Z,232
2016-08-05T05:21:20.938Z,216
2016-08-05T05:22:20.941Z,184
2016-08-05T05:23:20.930Z,172
2016-08-05T05:24:20.939Z,152
2016-08-05T05:25:22.241Z,148
2016-08-05T05:26:20.948Z,140
2016-08-05T05:27:20.950Z,132
2016-08-05T05:28:20.956Z,136
2016-08-05T05:29:20.963Z,128
2016-08-05T05:30:20.972Z,128
2016-08-05T05:31:20.982Z,132
2016-08-05T05:32:22.548Z,136
2016-08-05T05:33:20.990Z,140
2016-08-05T05:34:21.005Z,144
2016-08-05T05:35:21.011Z,148
2016-08-05T05:36:21.010Z,160
2016-08-05T05:37:21.016Z,176
2016-08-05T05:38:21.027Z,192
2016-08-05T05:39:21.032Z,208
2016-08-05T05:40:21.034Z,216
2016-08-05T05:41:21.039Z,216
2016-08-05T05:42:21.047Z,208
2016-08-05T05:43:21.056Z,176
2016-08-05T05:44:21.058Z,156
2016-08-05T05:45:21.065Z,148
2016-08-05T05:46:21.066Z,172
2016-08-05T05:47:21.075Z,180
2016-08-05T05:48:21.079Z,180
2016-08-05T05:49:21.084Z,164
2016-08-05T05:50:21.168Z,148
2016-08-05T05:51:21.100Z,160
2016-08-05T05:52:22.307Z,176
2016-08-05T05:53:21.111Z,184
2016-08-05T05:54:21.121Z,188
2016-08-05T05:55:21.125Z,176
2016-08-05T05:56:21.138Z,176
2016-08-05T05:57:21.138Z,168
2016-08-05T05:58:22.402Z,156
2016-08-05T05:59:21.160Z,156
2016-08-05T06:00:21.162Z,232
2016-08-05T06:01:21.160Z,372
2016-08-05T06:02:21.167Z,376
2016-08-05T06:03:21.167Z,420
2016-08-05T06:04:21.179Z,416
2016-08-05T06:05:21.182Z,388
2016-08-05T06:06:21.194Z,352
2016-08-05T06:07:21.201Z,312
2016-08-05T06:08:21.205Z,396
2016-08-05T06:09:21.212Z,436
2016-08-05T06:10:21.212Z,288
2016-08-05T06:11:21.229Z,200
2016-08-05T06:12:21.226Z,168
2016-08-05T06:13:21.229Z,124
2016-08-05T06:14:21.241Z,100
2016-08-05T06:15:21.245Z,104
2016-08-05T06:16:22.288Z,168
2016-08-05T06:17:21.260Z,200
2016-08-05T06:18:21.270Z,176
2016-08-05T06:19:22.682Z,216
2016-08-05T06:20:21.281Z,224
2016-08-05T06:21:21.284Z,172
2016-08-05T06:22:21.528Z,128
2016-08-05T06:23:22.408Z,116
2016-08-05T06:24:21.302Z,200
2016-08-05T06:25:21.574Z,284
2016-08-05T06:26:23.760Z,304
2016-08-05T06:27:21.317Z,316
2016-08-05T06:28:22.274Z,404
2016-08-05T06:29:23.010Z,404
2016-08-05T06:30:23.317Z,384
2016-08-05T06:31:22.911Z,380
2016-08-05T06:32:22.868Z,352
2016-08-05T06:33:22.407Z,376
2016-08-05T06:34:21.665Z,380
2016-08-05T06:35:22.514Z,360
2016-08-05T06:36:23.305Z,348
2016-08-05T06:37:21.542Z,368
2016-08-05T06:38:23.624Z,388
2016-08-05T06:39:22.224Z,400
2016-08-05T06:40:22.452Z,420
2016-08-05T06:41:23.221Z,332
2016-08-05T06:42:23.622Z,252
2016-08-05T06:43:23.071Z,204
2016-08-05T06:44:21.937Z,212
2016-08-05T06:45:21.720Z,172
2016-08-05T06:46:22.632Z,172
2016-08-05T06:47:21.672Z,156
2016-08-05T06:48:21.479Z,140
2016-08-05T06:49:22.471Z,120
2016-08-05T06:50:22.278Z,124
2016-08-05T06:51:21.961Z,116
2016-08-05T06:52:23.271Z,168
2016-08-05T06:53:23.804Z,200
2016-08-05T06:54:21.917Z,196
2016-08-05T06:55:21.494Z,152
2016-08-05T06:56:24.147Z,136
2016-08-05T06:57:21.829Z,168
2016-08-05T06:58:21.897Z,200
2016-08-05T06:59:21.657Z,228
2016-08-05T07:00:21.769Z,208
2016-08-05T07:01:21.835Z,244
2016-08-05T07:02:21.903Z,208
2016-08-05T07:03:23.524Z,216
2016-08-05T07:04:23.130Z,244
2016-08-05T07:05:21.707Z,228
2016-08-05T07:06:21.563Z,188
2016-08-05T07:07:21.561Z,208
2016-08-05T07:08:21.569Z,244
2016-08-05T07:09:21.614Z,232
2016-08-05T07:10:21.655Z,204
2016-08-05T07:11:25.391Z,264
2016-08-05T07:12:21.961Z,248
2016-08-05T07:13:21.735Z,212
2016-08-05T07:14:21.689Z,160
2016-08-05T07:15:22.108Z,172
2016-08-05T07:16:21.731Z,188
2016-08-05T07:17:21.624Z,144
2016-08-05T07:18:21.636Z,152
2016-08-05T07:19:21.632Z,168
2016-08-05T07:20:21.752Z,148
2016-08-05T07:21:21.649Z,156
2016-08-05T07:22:22.872Z,144
2016-08-05T07:23:21.656Z,184
2016-08-05T07:24:21.901Z,244
2016-08-05T07:25:21.682Z,192
2016-08-05T07:27:21.683Z,160
2016-08-05T07:28:21.691Z,124
2016-08-05T07:29:22.816Z,140
2016-08-05T07:30:21.735Z,220
2016-08-05T07:31:21.721Z,192
2016-08-05T07:32:21.766Z,168
2016-08-05T07:33:21.723Z,200
2016-08-05T07:34:21.730Z,284
2016-08-05T07:35:21.740Z,320
2016-08-05T07:36:21.739Z,352
2016-08-05T07:37:21.746Z,260
2016-08-05T07:38:21.756Z,280
2016-08-05T07:39:22.482Z,404
2016-08-05T07:40:22.887Z,200
2016-08-05T07:42:21.782Z,408
2016-08-05T07:43:21.785Z,316
2016-08-05T07:44:21.789Z,432
2016-08-05T07:45:21.794Z,276
2016-08-05T07:46:21.828Z,232
2016-08-05T07:47:21.803Z,376
2016-08-05T07:48:21.813Z,396
2016-08-05T07:49:21.863Z,328
2016-08-05T07:50:21.829Z,312
2016-08-05T07:51:22.798Z,440
2016-08-05T07:52:21.840Z,524
2016-08-05T07:53:21.845Z,420
2016-08-05T07:54:21.850Z,328
2016-08-05T07:55:21.853Z,420
2016-08-05T07:57:21.875Z,712
2016-08-05T07:58:21.872Z,420
2016-08-05T07:59:21.912Z,544
2016-08-05T08:00:21.892Z,868
2016-08-05T08:01:21.893Z,700
2016-08-05T08:02:21.917Z,392
2016-08-05T08:03:21.903Z,444
2016-08-05T08:04:21.910Z,208
2016-08-05T08:05:21.919Z,196
2016-08-05T08:06:21.925Z,224
2016-08-05T08:07:22.028Z,328
2016-08-05T08:08:21.964Z,304
2016-08-05T08:09:21.948Z,388
2016-08-05T08:10:21.958Z,412
2016-08-05T08:12:21.963Z,304
2016-08-05T08:13:21.964Z,272
2016-08-05T08:14:21.985Z,288
2016-08-05T08:15:22.946Z,356
2016-08-05T08:16:22.228Z,384
2016-08-05T08:17:21.991Z,344
2016-08-05T08:18:22.006Z,288
2016-08-05T08:19:22.006Z,316
2016-08-05T08:20:22.010Z,320
2016-08-05T08:21:22.023Z,372
2016-08-05T08:22:22.022Z,324
2016-08-05T08:23:22.034Z,224
2016-08-05T08:24:22.034Z,176
2016-08-05T08:25:22.043Z,168
2016-08-05T08:26:22.054Z,188
2016-08-05T08:27:22.054Z,148
2016-08-05T08:28:22.062Z,144
2016-08-05T08:29:22.065Z,148
2016-08-05T08:30:22.079Z,148
2016-08-05T08:31:22.075Z,152
2016-08-05T08:32:22.084Z,140
2016-08-05T08:33:22.092Z,160
2016-08-05T08:34:22.098Z,148
2016-08-05T08:35:22.840Z,184
2016-08-05T08:36:22.117Z,196
2016-08-05T08:37:22.119Z,220
2016-08-05T08:38:22.122Z,316
2016-08-05T08:39:22.128Z,372
2016-08-05T08:40:22.141Z,420
2016-08-05T08:42:22.143Z,380
2016-08-05T08:43:22.152Z,468
2016-08-05T08:44:22.159Z,364
2016-08-05T08:45:22.168Z,368
2016-08-05T08:46:22.174Z,652
2016-08-05T08:47:22.177Z,640
2016-08-05T08:48:22.186Z,416
2016-08-05T08:49:22.200Z,612
2016-08-05T08:50:22.210Z,488
2016-08-05T08:51:22.226Z,460
2016-08-05T08:52:23.413Z,544
2016-08-05T08:53:22.213Z,460
2016-08-05T08:54:22.225Z,364
2016-08-05T08:55:22.274Z,328
2016-08-05T08:57:22.238Z,284
2016-08-05T08:58:22.250Z,344
2016-08-05T08:59:23.802Z,344
2016-08-05T09:00:22.259Z,336
2016-08-05T09:01:22.263Z,328
2016-08-05T09:02:22.269Z,336
2016-08-05T09:03:22.277Z,392
2016-08-05T09:04:22.282Z,388
2016-08-05T09:05:24.057Z,360
2016-08-05T09:06:22.294Z,432
2016-08-05T09:07:22.839Z,376
2016-08-05T09:08:22.338Z,296
2016-08-05T09:09:22.313Z,260
2016-08-05T09:10:22.327Z,240
2016-08-05T09:12:22.338Z,248
2016-08-05T09:13:22.337Z,252
2016-08-05T09:14:22.345Z,256
2016-08-05T09:15:22.352Z,236
2016-08-05T09:16:22.360Z,224
2016-08-05T09:17:22.361Z,224
2016-08-05T09:18:22.371Z,228
2016-08-05T09:19:22.386Z,256
2016-08-05T09:20:22.381Z,248
2016-08-05T09:21:22.393Z,268
2016-08-05T09:22:22.401Z,300
2016-08-05T09:23:22.406Z,280
2016-08-05T09:24:22.427Z,296
2016-08-05T09:25:22.411Z,268
2016-08-05T09:27:22.426Z,232
2016-08-05T09:28:22.437Z,252
2016-08-05T09:29:22.444Z,280
2016-08-05T09:30:22.461Z,284
2016-08-05T09:31:22.451Z,304
2016-08-05T09:32:22.468Z,348
2016-08-05T09:33:22.509Z,360
2016-08-05T09:34:22.472Z,320
2016-08-05T09:35:22.495Z,292
2016-08-05T09:36:22.486Z,276
2016-08-05T09:37:22.695Z,288
2016-08-05T09:38:22.602Z,276
2016-08-05T09:39:22.647Z,268
2016-08-05T09:40:23.677Z,300
2016-08-05T09:42:22.883Z,276
2016-08-05T09:43:23.748Z,248
2016-08-05T09:44:22.758Z,224
2016-08-05T09:45:22.542Z,224
2016-08-05T09:46:22.550Z,212
2016-08-05T09:47:22.561Z,208
2016-08-05T09:48:22.557Z,184
2016-08-05T09:49:22.585Z,160
2016-08-05T09:50:22.574Z,164
2016-08-05T09:51:22.577Z,176
2016-08-05T09:52:22.583Z,200
2016-08-05T09:53:22.597Z,256
2016-08-05T09:54:22.599Z,324
2016-08-05T09:55:22.595Z,308
2016-08-05T09:56:22.626Z,304
2016-08-05T09:57:22.618Z,336
2016-08-05T09:58:22.625Z,396
2016-08-05T09:59:22.851Z,372
2016-08-05T10:00:22.782Z,356
2016-08-05T10:01:22.643Z,352
2016-08-05T10:02:22.650Z,356
2016-08-05T10:03:22.648Z,392
2016-08-05T10:04:22.663Z,444
2016-08-05T10:05:22.676Z,380
2016-08-05T10:06:22.671Z,380
2016-08-05T10:07:22.674Z,376
2016-08-05T10:08:22.683Z,356
2016-08-05T10:09:22.700Z,368
2016-08-05T10:10:22.693Z,336
2016-08-05T10:11:22.702Z,432
2016-08-05T10:12:22.706Z,440
2016-08-05T10:13:22.707Z,484
2016-08-05T10:14:22.717Z,476
2016-08-05T10:15:22.724Z,488
2016-08-05T10:16:22.734Z,492
2016-08-05T10:17:22.761Z,484
2016-08-05T10:18:22.747Z,432
2016-08-05T10:19:22.751Z,440
2016-08-05T10:20:22.769Z,460
2016-08-05T10:21:22.766Z,428
2016-08-05T10:22:22.782Z,356
2016-08-05T10:23:22.779Z,484
2016-08-05T10:24:22.785Z,432
2016-08-05T10:25:22.787Z,436
2016-08-05T10:26:22.792Z,460
2016-08-05T10:27:22.799Z,444
2016-08-05T10:28:22.812Z,468
2016-08-05T10:29:22.814Z,428
2016-08-05T10:30:25.072Z,504
2016-08-05T10:31:23.215Z,408
2016-08-05T10:32:22.833Z,340
2016-08-05T10:33:22.904Z,336
2016-08-05T10:34:23.829Z,332
2016-08-05T10:35:22.867Z,312
2016-08-05T10:36:23.835Z,284
2016-08-05T10:37:22.875Z,276
2016-08-05T10:38:22.871Z,304
2016-08-05T10:39:22.887Z,432
2016-08-05T10:40:22.879Z,368
2016-08-05T10:41:23.956Z,336
2016-08-05T10:42:22.907Z,396
2016-08-05T10:43:22.900Z,312
2016-08-05T10:44:22.920Z,324
2016-08-05T10:45:22.914Z,344
2016-08-05T10:46:22.938Z,324
2016-08-05T10:47:22.928Z,400
2016-08-05T10:48:22.933Z,432
2016-08-05T10:49:22.941Z,448
2016-08-05T10:50:22.968Z,380
2016-08-05T10:51:22.947Z,392
2016-08-05T10:52:22.962Z,348
2016-08-05T10:53:22.968Z,352
2016-08-05T10:54:22.977Z,456
2016-08-05T10:55:22.979Z,420
2016-08-05T10:56:24.138Z,448
2016-08-05T10:57:23.012Z,472
2016-08-05T10:58:22.998Z,488
2016-08-05T10:59:23.001Z,508
2016-08-05T11:00:23.011Z,456
2016-08-05T11:01:23.012Z,536
2016-08-05T11:02:23.020Z,480
2016-08-05T11:03:23.039Z,352
2016-08-05T11:04:23.998Z,416
2016-08-05T11:05:23.043Z,448
2016-08-05T11:06:23.051Z,472
2016-08-05T11:07:23.056Z,508
2016-08-05T11:08:23.380Z,496
2016-08-05T11:09:24.169Z,532
2016-08-05T11:10:23.627Z,500
2016-08-05T11:11:23.530Z,340
2016-08-05T11:12:23.090Z,468
2016-08-05T11:13:23.083Z,476
2016-08-05T11:14:23.102Z,480
2016-08-05T11:15:23.126Z,472
2016-08-05T11:16:23.111Z,472
2016-08-05T11:17:23.111Z,472
2016-08-05T11:18:23.118Z,464
2016-08-05T11:19:23.157Z,348
2016-08-05T11:20:23.130Z,332
2016-08-05T11:21:23.152Z,368
2016-08-05T11:22:23.151Z,340
2016-08-05T11:23:23.152Z,344
2016-08-05T11:24:23.156Z,352
2016-08-05T11:25:23.162Z,524
2016-08-05T11:26:23.183Z,460
2016-08-05T11:27:23.184Z,612
2016-08-05T11:28:23.181Z,520
2016-08-05T11:29:23.192Z,288
2016-08-05T11:30:23.195Z,264
2016-08-05T11:31:23.202Z,252
2016-08-05T11:32:23.205Z,244
2016-08-05T11:33:23.266Z,220
2016-08-05T11:34:23.222Z,208
2016-08-05T11:35:23.236Z,208
2016-08-05T11:36:23.239Z,204
2016-08-05T11:37:23.277Z,204
2016-08-05T11:38:23.246Z,188
2016-08-05T11:39:23.282Z,180
2016-08-05T11:40:23.260Z,192
2016-08-05T11:41:23.265Z,212
2016-08-05T11:42:23.273Z,220
2016-08-05T11:43:23.279Z,216
2016-08-05T11:44:23.284Z,212
2016-08-05T11:45:23.298Z,216
2016-08-05T11:46:23.299Z,236
2016-08-05T11:47:23.303Z,244
2016-08-05T11:48:23.310Z,240
2016-08-05T11:49:23.316Z,252
2016-08-05T11:50:23.322Z,264
2016-08-05T11:51:23.340Z,264
2016-08-05T11:52:23.342Z,272
2016-08-05T11:53:23.341Z,300
2016-08-05T11:54:23.351Z,300
2016-08-05T11:55:23.353Z,284
2016-08-05T11:56:23.360Z,280
2016-08-05T11:57:24.326Z,280
2016-08-05T11:58:23.373Z,284
2016-08-05T11:59:23.376Z,288
2016-08-05T12:00:23.401Z,296
2016-08-05T12:01:23.395Z,304
2016-08-05T12:02:23.660Z,324
2016-08-05T12:03:24.418Z,452
2016-08-05T12:04:23.420Z,444
2016-08-05T12:05:23.423Z,432
2016-08-05T12:06:23.420Z,428
2016-08-05T12:07:23.444Z,432
2016-08-05T12:08:23.439Z,432
2016-08-05T12:09:23.450Z,436
2016-08-05T12:10:23.442Z,296
2016-08-05T12:11:23.457Z,432
2016-08-05T12:12:23.468Z,432
2016-08-05T12:13:23.480Z,284
2016-08-05T12:14:23.482Z,456
2016-08-05T12:15:23.479Z,476
2016-08-05T12:16:23.488Z,292
2016-08-05T12:17:23.488Z,252
2016-08-05T12:18:23.512Z,248
2016-08-05T12:19:23.509Z,228
2016-08-05T12:20:23.508Z,204
2016-08-05T12:21:23.512Z,180
2016-08-05T12:22:23.536Z,140
2016-08-05T12:23:23.526Z,124
2016-08-05T12:24:23.539Z,104
2016-08-05T12:25:23.560Z,80
2016-08-05T12:26:23.546Z,76
2016-08-05T12:27:25.989Z,72
2016-08-05T12:28:23.560Z,72
2016-08-05T12:29:23.571Z,76
2016-08-05T12:30:23.582Z,80
2016-08-05T12:31:23.579Z,84
2016-08-05T12:32:23.581Z,88
2016-08-05T12:33:23.646Z,92
2016-08-05T12:34:23.601Z,92
2016-08-05T12:35:23.656Z,100
2016-08-05T12:36:24.101Z,104
2016-08-05T12:37:23.624Z,112
2016-08-05T12:38:23.622Z,116
2016-08-05T12:39:23.625Z,120
2016-08-05T12:40:23.642Z,132
2016-08-05T12:41:23.643Z,132
2016-08-05T12:42:26.089Z,136
2016-08-05T12:43:23.976Z,140
2016-08-05T12:44:24.128Z,148
2016-08-05T12:45:24.422Z,148
2016-08-05T12:46:24.193Z,152
2016-08-05T12:47:23.764Z,156
2016-08-05T12:48:23.687Z,156
2016-08-05T12:49:23.692Z,160
2016-08-05T12:50:23.699Z,164
2016-08-05T12:51:23.704Z,168
2016-08-05T12:52:23.713Z,172
2016-08-05T12:53:23.712Z,184
2016-08-05T12:54:23.722Z,188
2016-08-05T12:55:23.743Z,200
2016-08-05T12:56:23.739Z,216
2016-08-05T12:57:27.394Z,232
2016-08-05T12:58:23.756Z,236
2016-08-05T12:59:23.753Z,252
2016-08-05T13:00:23.765Z,260
2016-08-05T13:01:23.766Z,272
2016-08-05T13:02:23.774Z,284
2016-08-05T13:03:23.782Z,296
2016-08-05T13:04:23.786Z,284
2016-08-05T13:05:23.801Z,292
2016-08-05T13:06:23.797Z,316
2016-08-05T13:07:23.809Z,328
2016-08-05T13:08:23.810Z,372
2016-08-05T13:09:23.817Z,344
2016-08-05T13:10:23.824Z,340
2016-08-05T13:11:23.828Z,328
2016-08-05T13:13:23.846Z,328
2016-08-05T13:14:23.852Z,324
2016-08-05T13:15:23.857Z,328
2016-08-05T13:16:23.858Z,328
2016-08-05T13:17:23.863Z,344
2016-08-05T13:18:23.974Z,344
2016-08-05T13:19:23.871Z,360
2016-08-05T13:20:23.887Z,372
2016-08-05T13:21:23.898Z,376
2016-08-05T13:22:23.901Z,312
2016-08-05T13:23:23.905Z,304
2016-08-05T13:24:23.907Z,292
2016-08-05T13:25:23.917Z,288
2016-08-05T13:26:23.919Z,276
2016-08-05T13:28:23.933Z,252
2016-08-05T13:29:23.942Z,240
2016-08-05T13:30:23.944Z,228
2016-08-05T13:31:23.950Z,228
2016-08-05T13:32:23.969Z,220
2016-08-05T13:33:24.016Z,216
2016-08-05T13:34:23.969Z,212
2016-08-05T13:35:23.975Z,204
2016-08-05T13:36:24.015Z,200
2016-08-05T13:37:23.989Z,200
2016-08-05T13:38:23.993Z,200
2016-08-05T13:39:24.003Z,200
2016-08-05T13:40:24.011Z,200
2016-08-05T13:41:24.011Z,196
2016-08-05T13:43:24.026Z,196
2016-08-05T13:44:24.033Z,196
2016-08-05T13:45:24.038Z,196
2016-08-05T13:46:24.042Z,204
2016-08-05T13:47:24.059Z,208
2016-08-05T13:48:25.013Z,212
2016-08-05T13:49:24.064Z,220
2016-08-05T13:50:24.082Z,228
2016-08-05T13:51:24.076Z,236
2016-08-05T13:52:24.081Z,240
2016-08-05T13:53:24.082Z,244
2016-08-05T13:54:24.097Z,244
2016-08-05T13:55:24.107Z,256
2016-08-05T13:56:24.108Z,252
2016-08-05T13:58:24.126Z,256
2016-08-05T13:59:24.122Z,256
2016-08-05T14:00:24.131Z,252
2016-08-05T14:01:24.143Z,248
2016-08-05T14:02:24.146Z,252
2016-08-05T14:03:24.146Z,252
2016-08-05T14:04:24.165Z,256
2016-08-05T14:05:24.164Z,256
2016-08-05T14:06:24.169Z,256
2016-08-05T14:07:24.168Z,260
2016-08-05T14:08:24.183Z,260
2016-08-05T14:09:24.186Z,268
2016-08-05T14:10:24.192Z,268
2016-08-05T14:11:24.203Z,264
2016-08-05T14:13:24.221Z,268
2016-08-05T14:14:24.227Z,268
2016-08-05T14:15:24.229Z,272
2016-08-05T14:16:24.229Z,272
2016-08-05T14:17:24.258Z,276
2016-08-05T14:18:24.239Z,276
2016-08-05T14:19:24.245Z,284
2016-08-05T14:20:24.254Z,304
2016-08-05T14:21:24.255Z,480
2016-08-05T14:22:24.268Z,516
2016-08-05T14:23:24.287Z,500